Friday, November 17, 2017, 4:19 PM EST
Back to Local

KDOV, Dover Air Force Base

Location: Dover, DE, United States Lat: 39.133
Local Time: 4:19 PM EST (21:19 GMT) Lon: -75.467
Time Zone: US/Eastern Elev: 29 ft

Show me the last for .
Show Decoded

2017-11-17 14:56 METAR KDOV 171956Z 28011KT 10SM CLR 10/M03 A3011 RMK AO2A SLP200 T01031030 $ =
2017-11-17 13:56 METAR KDOV 171856Z 29010KT 10SM FEW180 11/M03 A3012 RMK AO2A SLP203 T01061030 $
                 =
2017-11-17 12:56 METAR KDOV 171756Z 29011KT 10SM CLR 10/M03 A3014 RMK AO2A SLP210 T01021030 10102
                 20046 57011 $ =
2017-11-17 11:56 METAR KDOV 171656Z 31012G21KT 10SM CLR 09/M03 A3014 RMK AO2A SLP210 T00931026 $
                 =
2017-11-17 10:56 METAR KDOV 171556Z 29014G18KT 10SM CLR 09/M03 A3016 RMK AO2A SLP216 $ =
2017-11-17 09:56 METAR KDOV 171456Z 31015G24KT 10SM CLR 08/M03 A3017 RMK AO2A SLP220 T00791028
                 50008 $ =
2017-11-17 08:56 METAR KDOV 171356Z AUTO 30016G22KT 10SM CLR 07/05 A3018 RMK AO2 SLP223 T00710052
                 $ =
2017-11-17 07:56 METAR KDOV 171256Z 29009KT 10SM FEW060 06/M01 A3017 RMK AO2A SLP220 $ =
2017-11-17 06:56 METAR KDOV 171156Z 28010KT 10SM FEW060 05/M02 A3014 RMK AO2A SLP210 10067 20044
                 52022 $ =
2017-11-17 05:56 METAR KDOV 171056Z AUTO 27006KT 10SM SCT041 05/04 A3011 RMK AO2 SLP200 T00500041
                 $ =
2017-11-17 04:56 METAR KDOV 170956Z AUTO 29006KT 10SM BKN045 06/05 A3010 RMK AO2 SLP196 T00590049
                 $ =
2017-11-17 03:56 METAR KDOV 170856Z AUTO 27008KT 10SM BKN047 07/05 A3008 RMK AO2 SLP189 T00650054
                 52010 $ =
2017-11-17 02:56 METAR KDOV 170756Z AUTO 26009G17KT 10SM OVC049 07/05 A3007 RMK AO2 SLP186
                 T00650054 $ =
2017-11-17 01:56 METAR KDOV 170656Z AUTO 27009KT 10SM OVC049 07/05 A3006 RMK AO2 SLPNO T00650054
                 $ =
2017-11-17 00:56 METAR KDOV 170556Z AUTO 26007KT 10SM FEW050 06/05 A3005 RMK AO2 SLPNO T00580048
                 10099 20058 53009 $ =
2017-11-16 23:56 METAR KDOV 170456Z AUTO 28015KT 10SM CLR 07/05 A3003 RMK AO2 SLPNO T00680054
                 401580064 $ =
2017-11-16 22:56 METAR KDOV 170356Z AUTO 28016KT 10SM CLR 07/06 A3002 RMK AO2 SLPNO T00680056 $ =
2017-11-16 21:56 METAR KDOV 170256Z 28013G20KT 10SM CLR 07/00 A3002 RMK AO2A SLPNO T00730001
                 52020 $ =
2017-11-16 20:56 METAR KDOV 170156Z 28014G23KT 10SM CLR 08/00 A3001 RMK AO2A SLP166 T00810000 $ =
2017-11-16 19:56 METAR KDOV 170056Z 30020G27KT 10SM CLR 09/00 A2998 RMK AO2A SLP156 T00930000 $ =
2017-11-16 18:56 METAR KDOV 162356Z 31012KT 10SM CLR 10/02 A2996 RMK AO2A SLP149 T00990018 10158
                 20099 52032 $ =
2017-11-16 17:56 METAR KDOV 162256Z 30010KT 10SM CLR 12/02 A2993 RMK AO2A SLP139 T01150024 $ =
2017-11-16 16:56 METAR KDOV 162156Z 28012KT 10SM CLR 13/02 A2990 RMK AO2A SLP128 T01270022 $ =

Support USWX by starting your Amazon purchase here.